createdAt,value
2022-08-22T00:00:58.138Z,72.86
2022-08-22T00:02:56.359Z,70.94
2022-08-22T00:04:14.416Z,72.87
2022-08-22T00:07:49.562Z,72.81
2022-08-22T00:11:25.843Z,72.86
2022-08-22T00:15:00.569Z,72.88
2022-08-22T00:18:32.682Z,72.85
2022-08-22T00:21:57.714Z,72.84
2022-08-22T00:25:03.415Z,72.90
2022-08-22T00:28:13.562Z,72.95
2022-08-22T00:31:26.530Z,72.96
2022-08-22T00:35:01.494Z,72.95
2022-08-22T00:38:18.453Z,72.99
2022-08-22T00:41:56.220Z,72.99
2022-08-22T00:45:31.911Z,72.98
2022-08-22T00:48:55.413Z,73.01
2022-08-22T00:51:58.292Z,73.06
2022-08-22T00:55:17.354Z,73.01
2022-08-22T00:58:46.419Z,73.05
2022-08-22T01:02:24.999Z,73.02
2022-08-22T01:05:30.433Z,73.18
2022-08-22T01:09:01.093Z,73.20
2022-08-22T01:12:03.881Z,73.22
2022-08-22T01:15:13.873Z,73.16
2022-08-22T01:18:46.662Z,73.25
2022-08-22T01:22:12.538Z,73.33
2022-08-22T01:25:53.683Z,73.38
2022-08-22T01:29:34.490Z,73.49
2022-08-22T01:32:43.341Z,73.58
2022-08-22T01:36:07.579Z,73.48
2022-08-22T01:39:41.428Z,73.63
2022-08-22T01:42:54.898Z,73.64
2022-08-22T01:46:24.228Z,73.65
2022-08-22T01:50:05.850Z,73.64
2022-08-22T01:53:22.895Z,73.78
2022-08-22T01:56:31.592Z,73.80
2022-08-22T01:59:42.428Z,73.77
2022-08-22T02:02:51.755Z,73.84
2022-08-22T02:06:10.158Z,73.90
2022-08-22T02:09:33.697Z,73.86
2022-08-22T02:13:24.778Z,73.97
2022-08-22T02:16:41.209Z,73.90
2022-08-22T02:19:57.929Z,74.06
2022-08-22T02:23:15.755Z,74.08
2022-08-22T02:26:28.789Z,74.18
2022-08-22T02:29:46.770Z,74.22
2022-08-22T02:33:01.001Z,74.22
2022-08-22T02:36:20.643Z,74.22
2022-08-22T02:39:32.352Z,74.30
2022-08-22T02:42:45.058Z,74.36
2022-08-22T02:46:32.509Z,74.37
2022-08-22T02:49:53.721Z,74.39
2022-08-22T02:53:09.383Z,74.46
2022-08-22T02:56:22.394Z,74.55
2022-08-22T02:59:35.300Z,74.61
2022-08-22T03:02:45.323Z,74.68
2022-08-22T03:05:59.118Z,74.73
2022-08-22T03:09:23.265Z,74.69
2022-08-22T03:12:55.768Z,74.79
2022-08-22T03:16:09.336Z,74.87
2022-08-22T03:19:43.833Z,74.89
2022-08-22T03:23:05.398Z,75.01
2022-08-22T03:26:14.336Z,75.06
2022-08-22T03:29:25.110Z,75.03
2022-08-22T03:33:13.112Z,75.02
2022-08-22T03:36:15.927Z,75.12
2022-08-22T03:39:39.403Z,75.17
2022-08-22T03:43:19.636Z,75.12
2022-08-22T03:46:40.982Z,75.27
2022-08-22T03:50:17.843Z,75.27
2022-08-22T03:53:42.375Z,75.36
2022-08-22T03:57:09.189Z,75.34
2022-08-22T04:00:50.821Z,75.37
2022-08-22T04:03:58.919Z,75.33
2022-08-22T04:07:32.283Z,75.31
2022-08-22T04:11:03.822Z,75.36
2022-08-22T04:14:24.184Z,75.39
2022-08-22T04:17:34.629Z,75.48
2022-08-22T04:21:12.031Z,75.39
2022-08-22T04:24:48.484Z,75.45
2022-08-22T04:28:10.099Z,75.45
2022-08-22T04:31:17.247Z,75.49
2022-08-22T04:34:29.630Z,75.48
2022-08-22T04:37:44.742Z,75.46
2022-08-22T04:40:59.449Z,75.53
2022-08-22T04:44:11.336Z,75.60
2022-08-22T04:47:40.209Z,75.57
2022-08-22T04:50:49.216Z,75.59
2022-08-22T04:54:23.690Z,75.60
2022-08-22T04:57:54.330Z,75.71
2022-08-22T05:01:06.000Z,75.67
2022-08-22T05:04:18.416Z,75.72
2022-08-22T05:07:27.282Z,75.78
2022-08-22T05:10:40.633Z,75.70
2022-08-22T05:13:55.129Z,75.78
2022-08-22T05:17:00.366Z,75.76
2022-08-22T05:20:09.438Z,75.91
2022-08-22T05:23:29.529Z,75.87
2022-08-22T05:26:44.589Z,75.88
2022-08-22T05:29:51.223Z,75.92
2022-08-22T05:33:16.591Z,75.95
2022-08-22T05:36:25.392Z,76.00
2022-08-22T05:39:30.150Z,76.01
2022-08-22T05:42:37.568Z,76.06
2022-08-22T05:45:46.927Z,76.03
2022-08-22T05:49:21.027Z,76.19
2022-08-22T05:52:59.182Z,76.43
2022-08-22T05:56:18.520Z,76.74
2022-08-22T05:59:32.945Z,76.64
2022-08-22T06:03:13.605Z,76.63
2022-08-22T06:06:21.472Z,76.58
2022-08-22T06:09:35.052Z,76.51
2022-08-22T06:12:51.001Z,76.57
2022-08-22T06:15:57.256Z,76.52
2022-08-22T06:19:00.700Z,76.47
2022-08-22T06:22:05.086Z,76.33
2022-08-22T06:25:14.345Z,76.38
2022-08-22T06:28:25.853Z,76.37
2022-08-22T06:31:47.575Z,76.22
2022-08-22T06:34:57.600Z,76.14
2022-08-22T06:38:01.504Z,76.02
2022-08-22T06:41:08.671Z,75.76
2022-08-22T06:44:15.885Z,75.64
2022-08-22T06:47:26.106Z,75.55
2022-08-22T06:50:36.905Z,75.56
2022-08-22T06:53:48.472Z,75.52
2022-08-22T06:56:55.586Z,75.37
2022-08-22T07:00:08.672Z,75.27
2022-08-22T07:03:37.453Z,75.18
2022-08-22T07:06:50.760Z,75.18
2022-08-22T07:09:56.576Z,74.95
2022-08-22T07:13:00.094Z,74.94
2022-08-22T07:16:17.839Z,74.92
2022-08-22T07:19:45.689Z,74.91
2022-08-22T07:23:08.430Z,74.96
2022-08-22T07:26:48.433Z,74.86
2022-08-22T07:30:10.286Z,74.80
2022-08-22T07:33:32.256Z,74.66
2022-08-22T07:36:47.779Z,74.58
2022-08-22T07:40:03.728Z,74.65
2022-08-22T07:43:43.498Z,74.69
2022-08-22T07:47:01.434Z,74.51
2022-08-22T07:54:10.141Z,74.37
2022-08-22T07:57:24.954Z,74.32
2022-08-22T08:00:29.688Z,74.27
2022-08-22T08:03:32.968Z,74.38
2022-08-22T08:06:36.664Z,74.54
2022-08-22T08:09:47.120Z,74.40
2022-08-22T08:13:02.327Z,74.31
2022-08-22T08:16:10.833Z,74.40
2022-08-22T08:19:17.099Z,74.45
2022-08-22T08:22:26.022Z,74.50
2022-08-22T08:25:32.253Z,74.51
2022-08-22T08:28:41.530Z,74.35
2022-08-22T08:31:45.424Z,74.29
2022-08-22T08:34:48.911Z,74.22
2022-08-22T08:38:10.653Z,74.28
2022-08-22T08:41:41.717Z,74.21
2022-08-22T08:45:09.911Z,74.19
2022-08-22T08:48:31.611Z,74.22
2022-08-22T08:51:50.301Z,74.21
2022-08-22T08:55:21.688Z,74.25
2022-08-22T08:58:25.491Z,74.22
2022-08-22T09:01:44.311Z,74.17
2022-08-22T09:05:12.689Z,74.20
2022-08-22T09:08:35.491Z,74.20
2022-08-22T09:12:03.319Z,74.12
2022-08-22T09:15:38.917Z,74.23
2022-08-22T09:19:04.982Z,74.30
2022-08-22T09:22:50.074Z,74.33
2022-08-22T09:26:03.043Z,74.39
2022-08-22T09:29:07.942Z,74.34
2022-08-22T09:32:21.093Z,74.32
2022-08-22T09:35:26.907Z,74.38
2022-08-22T09:38:30.594Z,74.43
2022-08-22T09:41:44.433Z,74.44
2022-08-22T09:45:38.249Z,74.41
2022-08-22T09:48:57.714Z,74.41
2022-08-22T09:52:15.168Z,74.42
2022-08-22T09:55:35.435Z,74.49
2022-08-22T09:58:57.859Z,74.39
2022-08-22T10:02:24.835Z,74.41
2022-08-22T10:05:51.426Z,74.38
2022-08-22T10:09:10.595Z,74.34
2022-08-22T10:12:29.691Z,74.34
2022-08-22T10:15:42.687Z,74.36
2022-08-22T10:18:54.713Z,74.31
2022-08-22T10:22:17.290Z,74.38
2022-08-22T10:25:48.225Z,74.44
2022-08-22T10:28:56.046Z,74.47
2022-08-22T10:32:43.050Z,74.49
2022-08-22T10:36:01.968Z,74.43
2022-08-22T10:39:14.591Z,74.46
2022-08-22T10:42:28.677Z,74.47
2022-08-22T10:45:43.655Z,74.55
2022-08-22T10:48:58.682Z,74.64
2022-08-22T10:52:27.316Z,74.71
2022-08-22T10:55:32.347Z,74.67
2022-08-22T10:58:42.264Z,74.67
2022-08-22T11:02:15.924Z,74.55
2022-08-22T11:05:32.917Z,74.61
2022-08-22T11:08:50.763Z,74.65
2022-08-22T11:12:11.108Z,74.67
2022-08-22T11:15:34.800Z,74.80
2022-08-22T11:19:15.023Z,74.81
2022-08-22T11:22:34.934Z,74.86
2022-08-22T11:25:58.114Z,74.82
2022-08-22T11:29:38.783Z,75.06
2022-08-22T11:33:13.772Z,75.10
2022-08-22T11:36:41.630Z,75.14
2022-08-22T11:40:01.743Z,75.29
2022-08-22T11:43:26.847Z,75.46
2022-08-22T11:46:39.599Z,75.55
2022-08-22T11:50:13.667Z,75.68
2022-08-22T11:53:26.455Z,75.69
2022-08-22T11:56:40.129Z,75.84
2022-08-22T12:00:11.559Z,76.11
2022-08-22T12:03:23.291Z,76.07
2022-08-22T12:06:48.442Z,76.15
2022-08-22T12:09:59.735Z,76.18
2022-08-22T12:13:17.094Z,76.12
2022-08-22T12:17:00.799Z,76.25
2022-08-22T12:20:18.881Z,76.29
2022-08-22T12:23:48.842Z,76.35
2022-08-22T12:26:55.305Z,76.34
2022-08-22T12:30:26.468Z,76.35
2022-08-22T12:33:55.047Z,76.32
2022-08-22T12:37:22.116Z,76.39
2022-08-22T12:40:31.579Z,76.39
2022-08-22T12:44:29.512Z,76.26
2022-08-22T12:48:12.118Z,76.36
2022-08-22T12:51:33.833Z,76.38
2022-08-22T12:55:06.022Z,76.55
2022-08-22T12:58:33.082Z,76.59
2022-08-22T13:01:44.848Z,76.64
2022-08-22T13:04:53.584Z,76.55
2022-08-22T13:08:04.525Z,76.59
2022-08-22T13:11:15.177Z,76.59
2022-08-22T13:14:28.220Z,76.63
2022-08-22T13:17:32.792Z,76.63
2022-08-22T13:20:43.467Z,76.61
2022-08-22T13:23:51.756Z,76.64
2022-08-22T13:27:05.872Z,76.67
2022-08-22T13:30:17.527Z,76.59
2022-08-22T13:33:30.852Z,76.75
2022-08-22T13:36:51.687Z,76.71
2022-08-22T13:40:01.893Z,76.72
2022-08-22T13:43:10.121Z,76.99
2022-08-22T13:46:13.387Z,77.02
2022-08-22T13:49:36.845Z,76.92
2022-08-22T13:53:00.806Z,77.00
2022-08-22T13:56:15.459Z,76.92
2022-08-22T13:59:50.265Z,76.93
2022-08-22T14:03:08.257Z,76.78
2022-08-22T14:06:36.898Z,76.75
2022-08-22T14:09:57.368Z,76.78
2022-08-22T14:13:00.346Z,76.61
2022-08-22T14:16:10.465Z,76.63
2022-08-22T14:19:38.287Z,76.72
2022-08-22T14:27:06.713Z,76.77
2022-08-22T14:30:20.380Z,76.71
2022-08-22T14:33:34.176Z,76.74
2022-08-22T14:37:16.299Z,76.68
2022-08-22T14:40:37.553Z,76.82
2022-08-22T14:44:28.269Z,76.78
2022-08-22T14:47:55.041Z,76.68
2022-08-22T14:51:21.337Z,76.75
2022-08-22T14:54:48.398Z,76.83
2022-08-22T14:58:08.435Z,76.84
2022-08-22T15:01:19.765Z,76.71
2022-08-22T15:04:47.062Z,76.84
2022-08-22T15:07:59.499Z,76.93
2022-08-22T15:11:27.339Z,76.86
2022-08-22T15:14:38.030Z,76.96
2022-08-22T15:17:50.710Z,76.86
2022-08-22T15:21:06.770Z,77.04
2022-08-22T15:24:14.310Z,76.83
2022-08-22T15:27:20.336Z,76.99
2022-08-22T15:30:54.142Z,76.97
2022-08-22T15:34:18.099Z,77.01
2022-08-22T15:37:21.541Z,77.13
2022-08-22T15:40:45.717Z,77.00
2022-08-22T15:44:00.631Z,77.10
2022-08-22T15:47:23.967Z,76.97
2022-08-22T15:50:35.943Z,77.00
2022-08-22T15:53:45.083Z,76.96
2022-08-22T15:56:53.771Z,77.00
2022-08-22T16:00:10.633Z,77.03
2022-08-22T16:03:28.216Z,77.00
2022-08-22T16:06:43.495Z,77.08
2022-08-22T16:09:50.821Z,77.06
2022-08-22T16:13:15.167Z,77.17
2022-08-22T16:16:49.806Z,77.09
2022-08-22T16:20:07.909Z,76.94
2022-08-22T16:23:13.252Z,76.90
2022-08-22T16:26:18.898Z,76.95
2022-08-22T16:29:30.831Z,76.85
2022-08-22T16:32:39.880Z,76.93
2022-08-22T16:36:20.125Z,76.95
2022-08-22T16:39:23.139Z,76.79
2022-08-22T16:42:46.793Z,76.63
2022-08-22T16:45:50.597Z,76.78
2022-08-22T16:49:02.087Z,76.80
2022-08-22T16:52:26.506Z,76.83
2022-08-22T16:55:29.722Z,76.81
2022-08-22T16:59:19.334Z,76.89
2022-08-22T17:03:03.696Z,76.78
2022-08-22T17:06:34.384Z,76.77
2022-08-22T17:09:49.546Z,76.75
2022-08-22T17:13:06.322Z,76.70
2022-08-22T17:16:18.423Z,76.63
2022-08-22T17:19:27.216Z,76.79
2022-08-22T17:22:40.669Z,76.73
2022-08-22T17:25:54.007Z,76.72
2022-08-22T17:28:56.933Z,76.49
2022-08-22T17:32:21.794Z,76.66
2022-08-22T17:35:41.073Z,76.82
2022-08-22T17:39:04.761Z,77.00
2022-08-22T17:42:26.611Z,77.06
2022-08-22T17:45:49.636Z,77.12
2022-08-22T17:49:11.350Z,77.23
2022-08-22T17:52:35.287Z,77.13
2022-08-22T17:55:59.441Z,77.05
2022-08-22T17:59:53.996Z,77.24
2022-08-22T18:03:02.840Z,77.24
2022-08-22T18:06:16.752Z,77.29
2022-08-22T18:09:32.014Z,77.27
2022-08-22T18:12:51.779Z,77.23
2022-08-22T18:16:01.193Z,77.20
2022-08-22T18:19:12.509Z,77.35
2022-08-22T18:22:36.721Z,77.23
2022-08-22T18:25:45.807Z,77.14
2022-08-22T18:29:00.898Z,77.22
2022-08-22T18:32:25.502Z,77.21
2022-08-22T18:35:53.796Z,77.30
2022-08-22T18:39:03.699Z,77.30
2022-08-22T18:42:18.055Z,77.26
2022-08-22T18:45:48.362Z,77.39
2022-08-22T18:49:14.166Z,77.41
2022-08-22T18:52:21.278Z,77.57
2022-08-22T18:55:33.726Z,77.57
2022-08-22T18:59:13.720Z,77.50
2022-08-22T19:02:55.876Z,77.82
2022-08-22T19:06:28.396Z,77.84
2022-08-22T19:10:05.216Z,77.99
2022-08-22T19:13:49.248Z,78.06
2022-08-22T19:17:18.399Z,78.10
2022-08-22T19:20:49.380Z,77.99
2022-08-22T19:23:57.401Z,77.78
2022-08-22T19:27:08.652Z,77.97
2022-08-22T19:30:35.066Z,78.11
2022-08-22T19:33:42.102Z,78.10
2022-08-22T19:37:06.116Z,78.29
2022-08-22T19:40:13.150Z,78.54
2022-08-22T19:43:30.845Z,78.82
2022-08-22T19:46:41.750Z,78.72
2022-08-22T19:50:01.646Z,78.72
2022-08-22T19:53:34.140Z,78.78
2022-08-22T19:57:00.005Z,78.71
2022-08-22T20:00:12.116Z,78.41
2022-08-22T20:03:49.186Z,78.29
2022-08-22T20:07:14.722Z,78.32
2022-08-22T20:10:59.771Z,78.40
2022-08-22T20:14:36.469Z,78.51
2022-08-22T20:17:43.659Z,78.52
2022-08-22T20:21:00.090Z,78.53
2022-08-22T20:24:14.233Z,78.60
2022-08-22T20:27:23.275Z,78.73
2022-08-22T20:30:37.316Z,78.74
2022-08-22T20:33:46.038Z,78.86
2022-08-22T20:36:59.737Z,78.85
2022-08-22T20:40:57.043Z,78.95
2022-08-22T20:44:29.580Z,79.00
2022-08-22T20:47:40.837Z,79.05
2022-08-22T20:50:45.298Z,79.13
2022-08-22T20:53:57.769Z,79.16
2022-08-22T20:57:18.304Z,79.15
2022-08-22T21:00:24.901Z,79.24
2022-08-22T21:03:33.813Z,79.31
2022-08-22T21:06:38.513Z,79.26
2022-08-22T21:10:00.173Z,79.31
2022-08-22T21:13:05.808Z,79.30
2022-08-22T21:16:13.859Z,79.39
2022-08-22T21:19:19.925Z,79.43
2022-08-22T21:22:32.179Z,79.44
2022-08-22T21:25:47.402Z,79.49
2022-08-22T21:29:13.039Z,79.45
2022-08-22T21:32:36.693Z,79.51
2022-08-22T21:35:39.862Z,79.53
2022-08-22T21:39:03.762Z,79.63
2022-08-22T21:42:11.432Z,79.59
2022-08-22T21:45:41.746Z,79.61
2022-08-22T21:48:59.544Z,79.60
2022-08-22T21:52:02.661Z,79.66
2022-08-22T21:55:12.943Z,79.61
2022-08-22T21:58:36.288Z,79.67
2022-08-22T22:01:38.727Z,79.74
2022-08-22T22:04:45.844Z,79.76
2022-08-22T22:07:48.746Z,79.77
2022-08-22T22:10:54.540Z,79.83
2022-08-22T22:13:57.448Z,79.77
2022-08-22T22:17:00.475Z,79.79
2022-08-22T22:20:04.750Z,79.89
2022-08-22T22:23:21.104Z,79.73
2022-08-22T22:26:24.473Z,79.35
2022-08-22T22:29:27.519Z,79.18
2022-08-22T22:32:30.536Z,78.88
2022-08-22T22:35:34.309Z,78.78
2022-08-22T22:38:39.077Z,78.66
2022-08-22T22:41:42.232Z,78.76
2022-08-22T22:44:47.511Z,78.73
2022-08-22T22:47:50.663Z,78.65
2022-08-22T22:50:54.019Z,78.73
2022-08-22T22:53:57.041Z,78.63
2022-08-22T22:56:59.905Z,78.65
2022-08-22T23:00:06.751Z,78.66
2022-08-22T23:03:10.210Z,78.71
2022-08-22T23:06:19.989Z,78.64
2022-08-22T23:09:38.528Z,78.65
2022-08-22T23:12:47.073Z,78.67
2022-08-22T23:15:50.029Z,78.63
2022-08-22T23:18:53.215Z,78.58
2022-08-22T23:21:57.896Z,78.57
2022-08-22T23:25:00.814Z,78.46
2022-08-22T23:28:04.140Z,78.50
2022-08-22T23:31:10.120Z,78.39
2022-08-22T23:34:15.215Z,78.51
2022-08-22T23:37:22.564Z,78.48
2022-08-22T23:40:25.491Z,78.51
2022-08-22T23:43:28.441Z,78.40
2022-08-22T23:46:31.427Z,78.38
2022-08-22T23:49:36.725Z,78.31
2022-08-22T23:52:39.703Z,78.28
2022-08-22T23:55:42.651Z,78.27
2022-08-22T23:58:45.528Z,78.21
